createdAt,value
2023-03-06T00:00:07.009Z,16.4
2023-03-06T00:01:08.973Z,16.3
2023-03-06T00:02:10.834Z,16.4
2023-03-06T00:03:12.705Z,16.4
2023-03-06T00:04:14.620Z,16.4
2023-03-06T00:05:16.487Z,16.4
2023-03-06T00:06:18.432Z,16.4
2023-03-06T00:07:20.268Z,16.3
2023-03-06T00:08:22.119Z,16.4
2023-03-06T00:09:23.980Z,16.4
2023-03-06T00:10:25.829Z,16.4
2023-03-06T00:11:27.680Z,16.4
2023-03-06T00:12:29.529Z,16.3
2023-03-06T00:13:31.484Z,16.3
2023-03-06T00:14:33.334Z,16.3
2023-03-06T00:15:35.171Z,16.3
2023-03-06T00:16:37.047Z,16.3
2023-03-06T00:17:39.076Z,16.3
2023-03-06T00:18:40.968Z,16.3
2023-03-06T00:19:42.788Z,16.3
2023-03-06T00:20:44.649Z,16.4
2023-03-06T00:21:46.391Z,16.3
2023-03-06T00:22:48.238Z,16.4
2023-03-06T00:23:50.190Z,16.4
2023-03-06T00:24:52.027Z,16.3
2023-03-06T00:25:53.881Z,16.3
2023-03-06T00:26:55.732Z,16.3
2023-03-06T00:27:57.583Z,16.3
2023-03-06T00:28:59.746Z,16.3
2023-03-06T00:30:01.611Z,16.3
2023-03-06T00:31:03.552Z,16.3
2023-03-06T00:32:05.545Z,16.3
2023-03-06T00:33:07.544Z,16.3
2023-03-06T00:34:09.508Z,16.3
2023-03-06T00:35:11.347Z,16.3
2023-03-06T00:36:13.194Z,16.3
2023-03-06T00:37:15.046Z,16.3
2023-03-06T00:38:16.893Z,16.3
2023-03-06T00:39:18.751Z,16.3
2023-03-06T00:40:20.603Z,16.3
2023-03-06T00:41:22.459Z,16.4
2023-03-06T00:42:24.400Z,16.4
2023-03-06T00:43:26.163Z,16.3
2023-03-06T00:44:27.971Z,16.3
2023-03-06T00:45:29.990Z,16.3
2023-03-06T00:46:32.216Z,16.3
2023-03-06T00:47:34.061Z,16.3
2023-03-06T00:48:35.915Z,16.3
2023-03-06T00:49:40.400Z,16.2
2023-03-06T00:50:42.268Z,16.3
2023-03-06T00:51:44.120Z,16.3
2023-03-06T00:52:45.997Z,16.3
2023-03-06T00:53:47.832Z,16.3
2023-03-06T00:54:49.569Z,16.3
2023-03-06T00:55:51.317Z,16.3
2023-03-06T00:56:53.169Z,16.3
2023-03-06T00:57:55.159Z,16.3
2023-03-06T00:58:57.080Z,16.3
2023-03-06T00:59:58.924Z,16.3
2023-03-06T01:01:00.894Z,16.3
2023-03-06T01:02:03.207Z,16.3
2023-03-06T01:03:05.403Z,16.3
2023-03-06T01:04:07.456Z,16.3
2023-03-06T01:05:09.446Z,16.3
2023-03-06T01:06:11.255Z,16.3
2023-03-06T01:07:12.994Z,16.2
2023-03-06T01:08:14.840Z,16.2
2023-03-06T01:09:16.663Z,16.2
2023-03-06T01:10:18.656Z,16.2
2023-03-06T01:11:20.445Z,16.2
2023-03-06T01:12:23.795Z,16.2
2023-03-06T01:13:25.640Z,16.2
2023-03-06T01:14:27.350Z,16.2
2023-03-06T01:15:29.138Z,16.2
2023-03-06T01:16:31.138Z,16.2
2023-03-06T01:17:33.144Z,16.3
2023-03-06T01:18:34.890Z,16.2
2023-03-06T01:19:36.843Z,16.2
2023-03-06T01:20:38.729Z,16.2
2023-03-06T01:21:40.477Z,16.2
2023-03-06T01:22:42.278Z,16.2
2023-03-06T01:23:44.139Z,16.2
2023-03-06T01:24:45.978Z,16.2
2023-03-06T01:25:47.935Z,16.2
2023-03-06T01:26:49.777Z,16.2
2023-03-06T01:27:51.533Z,16.3
2023-03-06T01:28:53.476Z,16.2
2023-03-06T01:29:55.204Z,16.2
2023-03-06T01:30:57.184Z,16.2
2023-03-06T01:31:59.217Z,16.2
2023-03-06T01:33:01.402Z,16.2
2023-03-06T01:34:03.238Z,16.2
2023-03-06T01:35:05.089Z,16.2
2023-03-06T01:36:06.977Z,16.2
2023-03-06T01:37:08.710Z,16.2
2023-03-06T01:38:10.654Z,16.2
2023-03-06T01:39:12.492Z,16.2
2023-03-06T01:40:14.358Z,16.1
2023-03-06T01:41:16.298Z,16.2
2023-03-06T01:42:18.154Z,16.2
2023-03-06T01:43:19.999Z,16.1
2023-03-06T01:44:21.754Z,16.1
2023-03-06T01:45:23.610Z,16.1
2023-03-06T01:46:25.466Z,16.1
2023-03-06T01:47:27.604Z,16.1
2023-03-06T01:48:32.133Z,16.1
2023-03-06T01:49:33.975Z,16.2
2023-03-06T01:50:35.919Z,16.2
2023-03-06T01:51:37.790Z,16.2
2023-03-06T01:52:39.628Z,16.2
2023-03-06T01:53:41.481Z,16.2
2023-03-06T01:54:43.428Z,16.2
2023-03-06T01:55:45.281Z,16.2
2023-03-06T01:56:47.004Z,16.1
2023-03-06T01:57:48.867Z,16.1
2023-03-06T01:58:50.717Z,16.1
2023-03-06T01:59:52.576Z,16.2
2023-03-06T02:00:54.570Z,16.2
2023-03-06T02:01:56.624Z,16.2
2023-03-06T02:02:58.508Z,16.2
2023-03-06T02:04:00.403Z,16.1
2023-03-06T02:05:02.350Z,16.2
2023-03-06T02:06:04.189Z,16.2
2023-03-06T02:07:06.064Z,16.1
2023-03-06T02:08:07.992Z,16.2
2023-03-06T02:09:09.838Z,16.2
2023-03-06T02:10:11.684Z,16.1
2023-03-06T02:11:13.686Z,16.1
2023-03-06T02:12:15.805Z,16.1
2023-03-06T02:13:17.653Z,16.1
2023-03-06T02:14:19.529Z,16.1
2023-03-06T02:15:21.343Z,16.2
2023-03-06T02:16:23.309Z,16.1
2023-03-06T02:17:25.256Z,16.1
2023-03-06T02:18:27.106Z,16.2
2023-03-06T02:19:28.958Z,16.2
2023-03-06T02:20:30.909Z,16.2
2023-03-06T02:21:32.774Z,16.1
2023-03-06T02:22:34.747Z,16.1
2023-03-06T02:23:36.561Z,16.1
2023-03-06T02:24:38.404Z,16.1
2023-03-06T02:25:40.368Z,16.2
2023-03-06T02:26:42.237Z,16.2
2023-03-06T02:27:44.066Z,16.2
2023-03-06T02:28:46.121Z,16.2
2023-03-06T02:29:47.963Z,16.2
2023-03-06T02:30:49.968Z,16.2
2023-03-06T02:31:51.979Z,16.1
2023-03-06T02:32:53.821Z,16.2
2023-03-06T02:33:55.676Z,16.2
2023-03-06T02:34:57.541Z,16.2
2023-03-06T02:35:59.523Z,16.1
2023-03-06T02:37:01.629Z,16.1
2023-03-06T02:38:03.505Z,16.1
2023-03-06T02:39:05.344Z,16.1
2023-03-06T02:40:07.302Z,16.1
2023-03-06T02:41:09.139Z,16.1
2023-03-06T02:42:10.984Z,16.1
2023-03-06T02:43:12.749Z,16.1
2023-03-06T02:44:14.588Z,16.1
2023-03-06T02:45:16.442Z,16.1
2023-03-06T02:46:18.329Z,16.1
2023-03-06T02:47:20.331Z,16.1
2023-03-06T02:48:22.294Z,16.1
2023-03-06T02:49:26.676Z,16.1
2023-03-06T02:50:28.563Z,16.2
2023-03-06T02:51:30.400Z,16.1
2023-03-06T02:52:32.356Z,16.1
2023-03-06T02:53:34.231Z,16.1
2023-03-06T02:54:36.045Z,16.1
2023-03-06T02:55:37.805Z,16.1
2023-03-06T02:56:39.650Z,16.1
2023-03-06T02:57:41.479Z,16.1
2023-03-06T02:58:43.354Z,16.1
2023-03-06T02:59:45.190Z,16.1
2023-03-06T03:00:47.043Z,16.1
2023-03-06T03:01:49.169Z,16.1
2023-03-06T03:02:51.262Z,16.1
2023-03-06T03:03:53.217Z,16.1
2023-03-06T03:04:55.336Z,16.1
2023-03-06T03:05:57.418Z,16.1
2023-03-06T03:06:59.372Z,16.1
2023-03-06T03:08:01.335Z,16.1
2023-03-06T03:09:03.415Z,16.1
2023-03-06T03:10:05.238Z,16.2
2023-03-06T03:11:07.077Z,16.1
2023-03-06T03:12:08.931Z,16.1
2023-03-06T03:13:10.889Z,16.1
2023-03-06T03:14:12.733Z,16.1
2023-03-06T03:15:14.560Z,16.1
2023-03-06T03:16:16.574Z,16.1
2023-03-06T03:17:18.691Z,16.2
2023-03-06T03:18:20.649Z,16.1
2023-03-06T03:19:22.502Z,16.1
2023-03-06T03:20:24.314Z,16.1
2023-03-06T03:21:26.097Z,16.1
2023-03-06T03:22:27.896Z,16.1
2023-03-06T03:23:32.564Z,16.1
2023-03-06T03:24:34.667Z,16.1
2023-03-06T03:25:36.434Z,16.1
2023-03-06T03:26:38.283Z,16.2
2023-03-06T03:27:40.174Z,16.1
2023-03-06T03:28:42.019Z,16.1
2023-03-06T03:29:43.967Z,16.1
2023-03-06T03:30:45.951Z,16.1
2023-03-06T03:31:47.981Z,16.1
2023-03-06T03:32:49.736Z,16.1
2023-03-06T03:33:51.578Z,16.1
2023-03-06T03:34:53.527Z,16.1
2023-03-06T03:35:55.420Z,16.1
2023-03-06T03:36:57.333Z,16.1
2023-03-06T03:37:59.185Z,16.1
2023-03-06T03:39:00.889Z,16.1
2023-03-06T03:40:02.897Z,16.1
2023-03-06T03:41:04.692Z,16.1
2023-03-06T03:42:06.575Z,16.1
2023-03-06T03:43:08.331Z,16.1
2023-03-06T03:44:10.277Z,16.1
2023-03-06T03:45:12.233Z,16.2
2023-03-06T03:46:14.085Z,16.1
2023-03-06T03:47:15.937Z,16.1
2023-03-06T03:48:17.789Z,16.1
2023-03-06T03:49:19.537Z,16.1
2023-03-06T03:50:21.479Z,16.1
2023-03-06T03:51:23.330Z,16.2
2023-03-06T03:52:25.290Z,16.2
2023-03-06T03:53:27.039Z,16.2
2023-03-06T03:54:31.420Z,16.2
2023-03-06T03:55:33.314Z,16.1
2023-03-06T03:56:35.150Z,16.3
2023-03-06T03:57:36.992Z,16.2
2023-03-06T03:58:38.851Z,16.3
2023-03-06T03:59:40.687Z,16.3
2023-03-06T04:00:42.445Z,16.3
2023-03-06T04:01:44.408Z,16.3
2023-03-06T04:02:46.248Z,16.4
2023-03-06T04:03:48.097Z,16.5
2023-03-06T04:04:49.999Z,16.5
2023-03-06T04:05:51.894Z,16.4
2023-03-06T04:06:53.746Z,16.4
2023-03-06T04:07:55.600Z,16.4
2023-03-06T04:08:57.449Z,16.4
2023-03-06T04:09:59.361Z,16.4
2023-03-06T04:11:01.372Z,16.4
2023-03-06T04:12:03.202Z,16.4
2023-03-06T04:13:04.997Z,16.3
2023-03-06T04:14:06.902Z,16.4
2023-03-06T04:15:08.749Z,16.4
2023-03-06T04:16:10.708Z,16.4
2023-03-06T04:17:12.646Z,16.3
2023-03-06T04:18:14.511Z,16.4
2023-03-06T04:19:16.244Z,16.3
2023-03-06T04:20:18.105Z,16.4
2023-03-06T04:21:20.046Z,16.4
2023-03-06T04:22:21.904Z,16.4
2023-03-06T04:23:23.745Z,16.5
2023-03-06T04:24:25.605Z,16.4
2023-03-06T04:25:27.455Z,16.4
2023-03-06T04:26:29.429Z,16.4
2023-03-06T04:27:31.358Z,16.4
2023-03-06T04:28:33.108Z,16.3
2023-03-06T04:29:34.962Z,16.3
2023-03-06T04:30:36.981Z,16.3
2023-03-06T04:31:39.026Z,16.3
2023-03-06T04:32:41.269Z,16.2
2023-03-06T04:33:43.478Z,16.3
2023-03-06T04:34:45.447Z,16.3
2023-03-06T04:35:47.411Z,16.3
2023-03-06T04:36:49.347Z,16.3
2023-03-06T04:37:51.033Z,16.3
2023-03-06T04:38:52.866Z,16.3
2023-03-06T04:39:55.000Z,16.3
2023-03-06T04:40:56.916Z,16.4
2023-03-06T04:41:59.224Z,16.3
2023-03-06T04:43:01.563Z,16.3
2023-03-06T04:44:03.415Z,16.3
2023-03-06T04:45:05.375Z,16.4
2023-03-06T04:46:07.362Z,16.4
2023-03-06T04:47:09.496Z,16.4
2023-03-06T04:48:11.230Z,16.4
2023-03-06T04:49:13.184Z,16.3
2023-03-06T04:50:14.854Z,16.3
2023-03-06T04:51:16.685Z,16.3
2023-03-06T04:52:18.624Z,16.4
2023-03-06T04:53:20.473Z,16.3
2023-03-06T04:54:22.223Z,16.3
2023-03-06T04:55:24.388Z,16.3
2023-03-06T04:56:26.749Z,16.4
2023-03-06T04:57:28.715Z,16.4
2023-03-06T04:58:30.646Z,16.4
2023-03-06T04:59:32.512Z,16.3
2023-03-06T05:00:34.443Z,16.4
2023-03-06T05:01:36.304Z,16.3
2023-03-06T05:02:38.253Z,16.4
2023-03-06T05:03:40.215Z,16.4
2023-03-06T05:04:42.211Z,16.4
2023-03-06T05:05:44.015Z,16.5
2023-03-06T05:06:45.854Z,16.4
2023-03-06T05:07:47.711Z,16.4
2023-03-06T05:08:49.558Z,16.4
2023-03-06T05:09:51.401Z,16.3
2023-03-06T05:10:53.357Z,16.3
2023-03-06T05:11:55.211Z,16.4
2023-03-06T05:12:57.084Z,16.4
2023-03-06T05:13:59.012Z,16.3
2023-03-06T05:15:00.752Z,16.2
2023-03-06T05:16:02.717Z,16.3
2023-03-06T05:17:04.775Z,16.3
2023-03-06T05:18:06.611Z,16.3
2023-03-06T05:19:08.430Z,16.2
2023-03-06T05:20:10.408Z,16.2
2023-03-06T05:21:12.260Z,16.2
2023-03-06T05:22:14.120Z,16.2
2023-03-06T05:23:16.066Z,16.2
2023-03-06T05:24:18.034Z,16.2
2023-03-06T05:25:19.865Z,16.2
2023-03-06T05:26:21.725Z,16.2
2023-03-06T05:27:23.568Z,16.2
2023-03-06T05:28:25.451Z,16.2
2023-03-06T05:29:27.599Z,16.2
2023-03-06T05:30:30.047Z,16.2
2023-03-06T05:31:32.096Z,16.2
2023-03-06T05:32:36.161Z,16.2
2023-03-06T05:33:38.157Z,16.2
2023-03-06T05:34:40.122Z,16.1
2023-03-06T05:35:42.059Z,16.1
2023-03-06T05:36:44.120Z,16.1
2023-03-06T05:37:46.167Z,16.1
2023-03-06T05:38:48.743Z,16.2
2023-03-06T05:39:50.693Z,16.2
2023-03-06T05:40:52.542Z,16.2
2023-03-06T05:41:54.383Z,16.2
2023-03-06T05:42:56.217Z,16.2
2023-03-06T05:43:58.215Z,16.2
2023-03-06T05:44:59.980Z,16.1
2023-03-06T05:46:01.948Z,16.2
2023-03-06T05:47:04.106Z,16.2
2023-03-06T05:48:05.745Z,16.2
2023-03-06T05:49:07.653Z,16.2
2023-03-06T05:50:09.445Z,16.2
2023-03-06T05:51:11.144Z,16.2
2023-03-06T05:52:12.992Z,16.2
2023-03-06T05:53:14.957Z,16.2
2023-03-06T05:54:16.908Z,16.2
2023-03-06T05:55:18.700Z,16.2
2023-03-06T05:56:20.494Z,16.2
2023-03-06T05:57:24.901Z,16.2
2023-03-06T05:58:26.770Z,16.2
2023-03-06T05:59:28.727Z,16.2
2023-03-06T06:00:30.566Z,16.2
2023-03-06T06:01:32.416Z,16.2
2023-03-06T06:02:34.414Z,16.2
2023-03-06T06:03:36.659Z,16.2
2023-03-06T06:04:38.436Z,16.3
2023-03-06T06:05:40.324Z,16.3
2023-03-06T06:06:42.069Z,16.2
2023-03-06T06:07:43.891Z,16.1
2023-03-06T06:08:45.677Z,16.1
2023-03-06T06:09:47.522Z,16.2
2023-03-06T06:10:53.572Z,16.2
2023-03-06T06:11:55.455Z,16.2
2023-03-06T06:12:57.258Z,16.1
2023-03-06T06:13:59.212Z,16.1
2023-03-06T06:15:01.204Z,16.1
2023-03-06T06:16:03.168Z,16
2023-03-06T06:17:05.067Z,16
2023-03-06T06:18:06.922Z,16
2023-03-06T06:19:08.784Z,16.1
2023-03-06T06:20:10.729Z,16.1
2023-03-06T06:21:12.480Z,16
2023-03-06T06:22:14.328Z,16
2023-03-06T06:23:16.036Z,15.9
2023-03-06T06:24:17.914Z,16
2023-03-06T06:25:19.869Z,16
2023-03-06T06:26:21.622Z,16
2023-03-06T06:27:23.329Z,16
2023-03-06T06:28:25.220Z,16
2023-03-06T06:29:27.165Z,16.1
2023-03-06T06:30:29.137Z,16
2023-03-06T06:31:31.140Z,16
2023-03-06T06:32:33.232Z,16
2023-03-06T06:33:35.289Z,16
2023-03-06T06:34:36.871Z,16
2023-03-06T06:35:38.813Z,16
2023-03-06T06:36:40.630Z,16
2023-03-06T06:37:42.475Z,16.1
2023-03-06T06:38:44.223Z,16.1
2023-03-06T06:39:46.090Z,16
2023-03-06T06:41:42.552Z,16
2023-03-06T06:43:29.591Z,15.9
2023-03-06T06:44:31.580Z,15.9
2023-03-06T06:45:33.552Z,15.9
2023-03-06T06:47:23.881Z,16
2023-03-06T06:48:28.017Z,15.9
2023-03-06T06:49:29.887Z,15.9
2023-03-06T06:50:31.693Z,15.9
2023-03-06T06:51:33.644Z,15.9
2023-03-06T06:52:35.521Z,15.9
2023-03-06T06:53:37.362Z,15.9
2023-03-06T06:54:39.032Z,15.8
2023-03-06T06:55:40.865Z,15.9
2023-03-06T06:56:42.728Z,15.9
2023-03-06T06:57:44.600Z,15.9
2023-03-06T06:58:46.414Z,15.9
2023-03-06T06:59:48.288Z,15.9
2023-03-06T07:00:50.312Z,16
2023-03-06T07:01:52.383Z,15.9
2023-03-06T07:02:54.834Z,15.9
2023-03-06T07:03:56.703Z,15.9
2023-03-06T07:05:05.624Z,15.9
2023-03-06T07:06:07.809Z,15.9
2023-03-06T07:07:09.552Z,15.8
2023-03-06T07:08:11.350Z,15.9
2023-03-06T07:09:13.220Z,15.8
2023-03-06T07:10:15.068Z,15.8
2023-03-06T07:11:16.832Z,15.8
2023-03-06T07:12:18.650Z,15.8
2023-03-06T07:13:20.406Z,15.8
2023-03-06T07:14:22.160Z,15.8
2023-03-06T07:15:24.037Z,15.7
2023-03-06T07:16:26.073Z,15.7
2023-03-06T07:17:27.906Z,15.7
2023-03-06T07:18:29.599Z,15.7
2023-03-06T07:19:31.414Z,15.7
2023-03-06T07:20:33.246Z,15.7
2023-03-06T07:21:35.216Z,15.7
2023-03-06T07:22:51.922Z,15.7
2023-03-06T07:23:53.938Z,15.7
2023-03-06T07:24:55.709Z,15.7
2023-03-06T07:25:57.553Z,15.7
2023-03-06T07:26:59.476Z,15.7
2023-03-06T07:28:01.637Z,15.7
2023-03-06T07:29:04.028Z,15.7
2023-03-06T07:30:05.780Z,16
2023-03-06T07:31:07.764Z,15.8
2023-03-06T07:32:10.067Z,15.8
2023-03-06T07:33:11.986Z,16
2023-03-06T07:34:13.681Z,16.1
2023-03-06T07:35:21.049Z,15.9
2023-03-06T07:36:22.936Z,15.9
2023-03-06T07:37:24.700Z,16.1
2023-03-06T07:38:26.408Z,15.9
2023-03-06T07:39:28.269Z,16
2023-03-06T07:40:30.107Z,16
2023-03-06T07:41:32.066Z,16
2023-03-06T07:42:33.895Z,16.1
2023-03-06T07:43:35.772Z,16
2023-03-06T07:44:37.745Z,16
2023-03-06T07:45:39.991Z,16.1
2023-03-06T07:46:42.020Z,16
2023-03-06T07:47:44.103Z,16
2023-03-06T07:48:45.781Z,16.2
2023-03-06T07:49:47.597Z,16.2
2023-03-06T07:50:49.441Z,16.2
2023-03-06T07:51:51.308Z,16.3
2023-03-06T07:52:53.137Z,16.2
2023-03-06T07:53:54.889Z,16.1
2023-03-06T07:54:56.641Z,16.2
2023-03-06T07:55:58.301Z,16.1
2023-03-06T07:57:00.132Z,16.3
2023-03-06T07:58:01.885Z,16.1
2023-03-06T07:59:03.844Z,16.4
2023-03-06T08:00:05.540Z,16.2
2023-03-06T08:01:07.234Z,16.2
2023-03-06T08:02:09.041Z,16.3
2023-03-06T08:03:11.170Z,16.2
2023-03-06T08:04:13.480Z,16.2
2023-03-06T08:05:15.568Z,16.1
2023-03-06T08:06:17.501Z,16.1
2023-03-06T08:07:19.262Z,16
2023-03-06T08:08:20.966Z,16
2023-03-06T08:09:22.740Z,16
2023-03-06T08:10:24.494Z,16.1
2023-03-06T08:11:26.278Z,16.1
2023-03-06T08:12:27.990Z,16
2023-03-06T08:13:29.736Z,16
2023-03-06T08:14:31.522Z,16
2023-03-06T08:15:33.289Z,16
2023-03-06T08:16:35.228Z,16
2023-03-06T08:17:37.351Z,16
2023-03-06T08:18:39.201Z,16
2023-03-06T08:19:41.148Z,16.1
2023-03-06T08:20:42.989Z,16.2
2023-03-06T08:21:44.806Z,16.1
2023-03-06T08:22:46.691Z,16
2023-03-06T08:23:48.541Z,16
2023-03-06T08:24:50.284Z,16
2023-03-06T08:25:52.132Z,16.1
2023-03-06T08:26:53.987Z,16.1
2023-03-06T08:27:55.737Z,16
2023-03-06T08:28:57.676Z,15.9
2023-03-06T08:29:59.369Z,16
2023-03-06T08:31:01.060Z,15.9
2023-03-06T08:32:03.221Z,16
2023-03-06T08:33:05.176Z,16
2023-03-06T08:34:06.956Z,16
2023-03-06T08:35:08.788Z,16
2023-03-06T08:36:10.730Z,16
2023-03-06T08:37:12.589Z,16.1
2023-03-06T08:38:14.459Z,16
2023-03-06T08:39:16.293Z,16
2023-03-06T08:40:18.134Z,16.1
2023-03-06T08:41:20.670Z,16
2023-03-06T08:42:22.559Z,16
2023-03-06T08:43:26.925Z,16
2023-03-06T08:44:28.950Z,16
2023-03-06T08:45:31.060Z,16
2023-03-06T08:46:32.923Z,16.1
2023-03-06T08:47:34.883Z,16.1
2023-03-06T08:48:36.738Z,16
2023-03-06T08:49:38.667Z,16
2023-03-06T08:50:40.507Z,16
2023-03-06T08:51:42.110Z,16
2023-03-06T08:52:43.810Z,16
2023-03-06T08:53:45.565Z,16
2023-03-06T08:54:47.415Z,16
2023-03-06T08:55:49.377Z,16.1
2023-03-06T08:56:51.208Z,16
2023-03-06T08:57:53.079Z,16
2023-03-06T08:58:54.909Z,16
2023-03-06T08:59:56.768Z,16.1
2023-03-06T09:00:58.636Z,16.1
2023-03-06T09:02:01.028Z,16.1
2023-03-06T09:03:03.016Z,16.1
2023-03-06T09:04:04.882Z,16.1
2023-03-06T09:05:07.076Z,16
2023-03-06T09:06:08.905Z,16.1
2023-03-06T09:07:10.741Z,16
2023-03-06T09:08:12.591Z,16.2
2023-03-06T09:09:14.554Z,16
2023-03-06T09:10:16.546Z,16.1
2023-03-06T09:11:18.766Z,16.1
2023-03-06T09:12:20.920Z,16
2023-03-06T09:13:22.844Z,16.1
2023-03-06T09:14:24.721Z,16.1
2023-03-06T09:15:26.535Z,16.2
2023-03-06T09:16:28.462Z,16.2
2023-03-06T09:17:30.367Z,16.1
2023-03-06T09:18:32.315Z,16.1
2023-03-06T09:19:34.165Z,16.2
2023-03-06T09:20:36.041Z,16.1
2023-03-06T09:21:38.075Z,16.1
2023-03-06T09:22:39.930Z,16
2023-03-06T09:23:41.883Z,16
2023-03-06T09:24:43.726Z,16.1
2023-03-06T09:25:45.446Z,16.1
2023-03-06T09:26:51.632Z,16.2
2023-03-06T09:28:11.832Z,16.2
2023-03-06T09:29:14.096Z,16.1
2023-03-06T09:30:15.822Z,16.1
2023-03-06T09:31:17.807Z,16.1
2023-03-06T09:32:20.068Z,16.1
2023-03-06T09:33:22.109Z,16.1
2023-03-06T09:34:23.877Z,16.1
2023-03-06T09:35:25.809Z,16.2
2023-03-06T09:36:27.746Z,16.1
2023-03-06T09:37:29.478Z,16.1
2023-03-06T09:38:31.418Z,16
2023-03-06T09:39:33.191Z,16.1
2023-03-06T09:40:35.048Z,16.2
2023-03-06T09:41:36.887Z,16.2
2023-03-06T09:42:38.633Z,16.2
2023-03-06T09:43:40.384Z,16.2
2023-03-06T09:44:42.121Z,16.2
2023-03-06T09:45:44.138Z,16.2
2023-03-06T09:46:46.036Z,16.2
2023-03-06T09:47:47.953Z,16.2
2023-03-06T09:48:49.843Z,16.2
2023-03-06T09:49:51.653Z,16.3
2023-03-06T09:50:53.639Z,16.2
2023-03-06T09:51:55.615Z,16.3
2023-03-06T09:52:57.335Z,16.3
2023-03-06T09:53:59.212Z,16.3
2023-03-06T09:55:00.930Z,16.2
2023-03-06T09:56:02.680Z,16.2
2023-03-06T09:57:04.429Z,16.2
2023-03-06T09:58:07.818Z,16.2
2023-03-06T09:59:09.653Z,16.2
2023-03-06T10:00:11.521Z,16.2
2023-03-06T10:01:13.357Z,16.2
2023-03-06T10:02:15.458Z,16.2
2023-03-06T10:03:18.178Z,16.2
2023-03-06T10:04:20.421Z,16.2
2023-03-06T10:05:22.262Z,16.1
2023-03-06T10:06:24.360Z,16.1
2023-03-06T10:07:26.229Z,16.1
2023-03-06T10:08:28.052Z,16.1
2023-03-06T10:09:29.879Z,16.1
2023-03-06T10:10:31.699Z,16.1
2023-03-06T10:11:33.398Z,16.1
2023-03-06T10:12:35.225Z,16
2023-03-06T10:13:37.090Z,16.1
2023-03-06T10:14:38.850Z,16.1
2023-03-06T10:15:40.822Z,16.1
2023-03-06T10:16:42.711Z,16.2
2023-03-06T10:17:44.631Z,16.2
2023-03-06T10:18:46.452Z,16.2
2023-03-06T10:19:48.306Z,16.1
2023-03-06T10:20:50.159Z,16.1
2023-03-06T10:21:52.104Z,16.1
2023-03-06T10:23:05.066Z,16.2
2023-03-06T10:24:07.164Z,16.1
2023-03-06T10:25:09.129Z,16.1
2023-03-06T10:26:11.083Z,16.1
2023-03-06T10:27:13.160Z,16.1
2023-03-06T10:28:15.197Z,16.1
2023-03-06T10:29:17.037Z,16.1
2023-03-06T10:30:18.788Z,16.1
2023-03-06T10:31:20.696Z,16.1
2023-03-06T10:32:22.825Z,16.2
2023-03-06T10:33:24.698Z,16.1
2023-03-06T10:34:26.596Z,16.2
2023-03-06T10:35:31.059Z,16.2
2023-03-06T10:36:33.067Z,16.2
2023-03-06T10:37:34.817Z,16.1
2023-03-06T10:38:36.528Z,16.1
2023-03-06T10:39:38.195Z,16.1
2023-03-06T10:40:39.953Z,16
2023-03-06T10:41:41.816Z,16
2023-03-06T10:42:45.079Z,16
2023-03-06T10:43:46.874Z,16
2023-03-06T10:44:48.690Z,16
2023-03-06T10:45:50.645Z,16
2023-03-06T10:46:52.444Z,16
2023-03-06T10:47:54.132Z,16
2023-03-06T10:48:55.870Z,16
2023-03-06T10:49:57.620Z,16
2023-03-06T10:51:09.759Z,16
2023-03-06T10:52:20.464Z,16.1
2023-03-06T10:53:22.388Z,16
2023-03-06T10:54:24.124Z,16
2023-03-06T10:55:26.049Z,16
2023-03-06T10:56:27.862Z,16.1
2023-03-06T10:57:29.739Z,16.1
2023-03-06T10:58:31.505Z,16
2023-03-06T10:59:33.416Z,16
2023-03-06T11:00:35.278Z,16.1
2023-03-06T11:01:37.397Z,16.1
2023-03-06T11:02:39.409Z,16
2023-03-06T11:03:41.435Z,16
2023-03-06T11:04:43.310Z,16
2023-03-06T11:05:45.231Z,16
2023-03-06T11:06:46.979Z,16
2023-03-06T11:07:48.729Z,16
2023-03-06T11:08:50.478Z,16.1
2023-03-06T11:09:52.461Z,16.1
2023-03-06T11:10:54.284Z,16
2023-03-06T11:11:56.032Z,16.1
2023-03-06T11:12:57.978Z,16.1
2023-03-06T11:13:59.731Z,16
2023-03-06T11:15:01.732Z,16.2
2023-03-06T11:16:03.905Z,16.1
2023-03-06T11:17:05.887Z,16.2
2023-03-06T11:18:07.824Z,16.2
2023-03-06T11:19:09.690Z,16.4
2023-03-06T11:20:11.401Z,16.3
2023-03-06T11:21:13.192Z,16.4
2023-03-06T11:22:15.263Z,16.3
2023-03-06T11:23:17.092Z,16.2
2023-03-06T11:24:18.960Z,16.2
2023-03-06T11:25:21.040Z,16.4
2023-03-06T11:26:22.857Z,16.3
2023-03-06T11:27:24.715Z,16.3
2023-03-06T11:28:26.445Z,16.4
2023-03-06T11:29:30.044Z,16.2
2023-03-06T11:30:36.089Z,16.3
2023-03-06T11:31:38.127Z,16.2
2023-03-06T11:32:40.240Z,16.3
2023-03-06T11:33:42.270Z,16.5
2023-03-06T11:34:43.995Z,16.3
2023-03-06T11:35:45.971Z,16.3
2023-03-06T11:36:47.819Z,16.3
2023-03-06T11:37:49.765Z,16.3
2023-03-06T11:38:51.825Z,16.4
2023-03-06T11:39:53.648Z,16.3
2023-03-06T11:40:55.544Z,16.2
2023-03-06T11:41:57.288Z,16.3
2023-03-06T11:42:59.124Z,16.4
2023-03-06T11:44:00.952Z,16.4
2023-03-06T11:45:03.527Z,16.5
2023-03-06T11:46:05.786Z,16.5
2023-03-06T11:47:07.481Z,16.5
2023-03-06T11:48:09.382Z,16.5
2023-03-06T11:49:11.235Z,16.5
2023-03-06T11:50:12.977Z,16.5
2023-03-06T11:51:14.833Z,16.5
2023-03-06T11:52:16.781Z,16.4
2023-03-06T11:53:18.739Z,16.4
2023-03-06T11:54:20.579Z,16.4
2023-03-06T11:55:22.432Z,16.4
2023-03-06T11:56:24.314Z,16.4
2023-03-06T11:57:26.134Z,16.4
2023-03-06T11:58:27.996Z,16.5
2023-03-06T11:59:29.804Z,16.4
2023-03-06T12:00:31.694Z,16.3
2023-03-06T12:01:33.448Z,16.3
2023-03-06T12:02:35.176Z,16.4
2023-03-06T12:03:37.136Z,16.6
2023-03-06T12:04:38.996Z,16.5
2023-03-06T12:05:40.973Z,16.4
2023-03-06T12:06:43.094Z,16.5
2023-03-06T12:07:44.846Z,16.5
2023-03-06T12:08:46.655Z,16.5
2023-03-06T12:09:48.436Z,16.5
2023-03-06T12:10:52.448Z,16.4
2023-03-06T12:11:54.313Z,16.4
2023-03-06T12:12:56.152Z,16.5
2023-03-06T12:14:00.298Z,16.5
2023-03-06T12:15:05.890Z,16.5
2023-03-06T12:16:07.891Z,16.4
2023-03-06T12:17:09.988Z,16.4
2023-03-06T12:18:11.845Z,16.4
2023-03-06T12:19:13.545Z,16.4
2023-03-06T12:20:15.528Z,16.5
2023-03-06T12:21:17.524Z,16.4
2023-03-06T12:22:19.346Z,16.4
2023-03-06T12:23:21.105Z,16.4
2023-03-06T12:24:22.917Z,16.4
2023-03-06T12:25:24.684Z,16.5
2023-03-06T12:26:26.537Z,16.5
2023-03-06T12:27:28.537Z,16.4
2023-03-06T12:28:30.346Z,16.5
2023-03-06T12:29:32.098Z,16.5
2023-03-06T12:30:33.917Z,16.5
2023-03-06T12:31:35.717Z,16.4
2023-03-06T12:32:37.772Z,16.5
2023-03-06T12:33:39.890Z,16.5
2023-03-06T12:34:41.665Z,16.5
2023-03-06T12:35:43.808Z,16.5
2023-03-06T12:36:45.656Z,16.5
2023-03-06T12:37:47.498Z,16.5
2023-03-06T12:38:49.246Z,16.5
2023-03-06T12:39:51.300Z,16.5
2023-03-06T12:40:53.456Z,16.6
2023-03-06T12:41:55.317Z,16.6
2023-03-06T12:42:57.195Z,16.6
2023-03-06T12:43:59.018Z,16.7
2023-03-06T12:45:00.916Z,16.7
2023-03-06T12:46:03.110Z,16.6
2023-03-06T12:47:05.078Z,16.5
2023-03-06T12:48:06.821Z,16.6
2023-03-06T12:49:08.772Z,16.5
2023-03-06T12:50:10.525Z,16.6
2023-03-06T12:51:12.377Z,16.5
2023-03-06T12:52:21.467Z,16.6
2023-03-06T12:53:32.120Z,16.7
2023-03-06T12:54:34.202Z,16.6
2023-03-06T12:55:36.018Z,16.6
2023-03-06T12:56:37.870Z,16.6
2023-03-06T12:57:39.561Z,16.6
2023-03-06T12:58:41.457Z,16.6
2023-03-06T12:59:43.441Z,16.6
2023-03-06T13:00:52.558Z,16.6
2023-03-06T13:02:05.916Z,16.6
2023-03-06T13:03:07.955Z,16.7
2023-03-06T13:04:09.704Z,16.6
2023-03-06T13:05:11.546Z,16.7
2023-03-06T13:06:13.808Z,16.7
2023-03-06T13:07:15.707Z,16.7
2023-03-06T13:08:17.512Z,16.7
2023-03-06T13:09:19.346Z,16.9
2023-03-06T13:10:21.216Z,16.8
2023-03-06T13:11:23.058Z,16.8
2023-03-06T13:12:24.884Z,16.8
2023-03-06T13:13:26.828Z,16.8
2023-03-06T13:14:28.785Z,16.8
2023-03-06T13:15:30.781Z,17
2023-03-06T13:16:32.675Z,16.9
2023-03-06T13:17:34.647Z,16.9
2023-03-06T13:18:36.418Z,16.8
2023-03-06T13:19:38.266Z,16.9
2023-03-06T13:20:40.122Z,16.8
2023-03-06T13:21:41.872Z,16.8
2023-03-06T13:22:43.825Z,16.7
2023-03-06T13:23:45.572Z,16.8
2023-03-06T13:24:52.576Z,16.7
2023-03-06T13:26:09.899Z,16.7
2023-03-06T13:27:11.795Z,16.7
2023-03-06T13:28:13.749Z,16.7
2023-03-06T13:29:15.611Z,16.7
2023-03-06T13:30:17.552Z,16.7
2023-03-06T13:31:28.230Z,16.7
2023-03-06T13:32:30.356Z,16.7
2023-03-06T13:33:32.316Z,16.8
2023-03-06T13:34:34.176Z,16.8
2023-03-06T13:35:36.200Z,16.8
2023-03-06T13:36:40.020Z,16.7
2023-03-06T13:37:41.763Z,16.8
2023-03-06T13:38:43.623Z,16.8
2023-03-06T13:39:45.426Z,16.8
2023-03-06T13:40:47.416Z,16.8
2023-03-06T13:41:49.276Z,16.7
2023-03-06T13:42:51.117Z,16.8
2023-03-06T13:43:52.863Z,16.7
2023-03-06T13:44:54.715Z,16.7
2023-03-06T13:45:56.953Z,16.7
2023-03-06T13:46:58.942Z,16.7
2023-03-06T13:48:43.414Z,16.8
2023-03-06T13:49:47.796Z,16.8
2023-03-06T13:50:49.748Z,16.7
2023-03-06T13:51:51.607Z,16.7
2023-03-06T13:52:55.395Z,16.7
2023-03-06T13:53:57.421Z,16.7
2023-03-06T13:54:59.502Z,16.7
2023-03-06T13:56:01.248Z,16.7
2023-03-06T13:57:02.992Z,16.7